sensor_id;sensor_type;location;lat;lon;timestamp;temperature;humidity
22781;DHT22;11557;50.884;4.322;2023-08-08T00:01:35;15.90;99.90
22781;DHT22;11557;50.884;4.322;2023-08-08T00:04:01;15.90;99.90
22781;DHT22;11557;50.884;4.322;2023-08-08T00:06:26;15.90;99.90
22781;DHT22;11557;50.884;4.322;2023-08-08T00:08:52;15.80;99.90
22781;DHT22;11557;50.884;4.322;2023-08-08T00:11:18;15.90;99.90
22781;DHT22;11557;50.884;4.322;2023-08-08T00:13:44;15.90;99.90
22781;DHT22;11557;50.884;4.322;2023-08-08T00:16:09;15.80;99.90
22781;DHT22;11557;50.884;4.322;2023-08-08T00:18:35;15.80;99.90
22781;DHT22;11557;50.884;4.322;2023-08-08T00:21:01;15.80;99.90
22781;DHT22;11557;50.884;4.322;2023-08-08T00:23:26;15.70;99.90
22781;DHT22;11557;50.884;4.322;2023-08-08T00:25:52;15.80;99.90
22781;DHT22;11557;50.884;4.322;2023-08-08T00:28:18;15.80;99.90
22781;DHT22;11557;50.884;4.322;2023-08-08T00:30:44;15.70;99.90
22781;DHT22;11557;50.884;4.322;2023-08-08T00:33:09;15.90;99.90
22781;DHT22;11557;50.884;4.322;2023-08-08T00:35:35;15.80;99.90
22781;DHT22;11557;50.884;4.322;2023-08-08T00:38:00;16.80;99.90
22781;DHT22;11557;50.884;4.322;2023-08-08T00:40:26;15.70;99.90
22781;DHT22;11557;50.884;4.322;2023-08-08T00:42:52;15.80;99.90
22781;DHT22;11557;50.884;4.322;2023-08-08T00:45:18;15.80;99.90
22781;DHT22;11557;50.884;4.322;2023-08-08T00:47:43;15.90;99.90
22781;DHT22;11557;50.884;4.322;2023-08-08T00:50:10;15.80;99.90
22781;DHT22;11557;50.884;4.322;2023-08-08T00:52:38;15.70;99.90
22781;DHT22;11557;50.884;4.322;2023-08-08T00:55:05;15.60;99.90
22781;DHT22;11557;50.884;4.322;2023-08-08T00:57:31;15.70;99.90
22781;DHT22;11557;50.884;4.322;2023-08-08T00:59:57;15.60;99.90
22781;DHT22;11557;50.884;4.322;2023-08-08T01:02:22;15.70;99.90
22781;DHT22;11557;50.884;4.322;2023-08-08T01:04:48;15.60;99.90
22781;DHT22;11557;50.884;4.322;2023-08-08T01:07:30;15.40;99.90
22781;DHT22;11557;50.884;4.322;2023-08-08T01:12:24;15.30;99.90
22781;DHT22;11557;50.884;4.322;2023-08-08T01:14:51;15.30;99.90
22781;DHT22;11557;50.884;4.322;2023-08-08T01:17:17;15.30;99.90
22781;DHT22;11557;50.884;4.322;2023-08-08T01:19:44;15.30;99.90
22781;DHT22;11557;50.884;4.322;2023-08-08T01:22:28;15.50;99.90
22781;DHT22;11557;50.884;4.322;2023-08-08T01:24:55;15.50;99.90
22781;DHT22;11557;50.884;4.322;2023-08-08T01:27:22;15.60;99.90
22781;DHT22;11557;50.884;4.322;2023-08-08T01:29:48;15.50;99.90
22781;DHT22;11557;50.884;4.322;2023-08-08T01:32:14;15.50;99.90
22781;DHT22;11557;50.884;4.322;2023-08-08T01:34:39;15.40;99.90
22781;DHT22;11557;50.884;4.322;2023-08-08T01:39:41;15.30;99.90
22781;DHT22;11557;50.884;4.322;2023-08-08T01:42:08;15.30;99.90
22781;DHT22;11557;50.884;4.322;2023-08-08T01:44:34;15.30;99.90
22781;DHT22;11557;50.884;4.322;2023-08-08T01:47:00;15.40;99.90
22781;DHT22;11557;50.884;4.322;2023-08-08T01:49:26;15.50;99.90
22781;DHT22;11557;50.884;4.322;2023-08-08T01:51:52;15.60;99.90
22781;DHT22;11557;50.884;4.322;2023-08-08T01:54:19;15.60;99.90
22781;DHT22;11557;50.884;4.322;2023-08-08T01:56:44;15.50;99.90
22781;DHT22;11557;50.884;4.322;2023-08-08T01:59:10;15.50;99.90
22781;DHT22;11557;50.884;4.322;2023-08-08T02:01:36;15.60;99.90
22781;DHT22;11557;50.884;4.322;2023-08-08T02:04:02;15.50;99.90
22781;DHT22;11557;50.884;4.322;2023-08-08T02:06:27;15.60;99.90
22781;DHT22;11557;50.884;4.322;2023-08-08T02:08:53;15.70;99.90
22781;DHT22;11557;50.884;4.322;2023-08-08T02:11:19;15.70;99.90
22781;DHT22;11557;50.884;4.322;2023-08-08T02:13:44;15.60;99.90
22781;DHT22;11557;50.884;4.322;2023-08-08T02:16:10;15.50;99.90
22781;DHT22;11557;50.884;4.322;2023-08-08T02:18:36;15.40;99.90
22781;DHT22;11557;50.884;4.322;2023-08-08T02:21:06;15.40;99.90
22781;DHT22;11557;50.884;4.322;2023-08-08T02:23:33;15.50;99.90
22781;DHT22;11557;50.884;4.322;2023-08-08T02:25:59;15.60;99.90
22781;DHT22;11557;50.884;4.322;2023-08-08T02:28:24;15.50;99.90
22781;DHT22;11557;50.884;4.322;2023-08-08T02:30:50;15.50;99.90
22781;DHT22;11557;50.884;4.322;2023-08-08T02:33:15;15.50;99.90
22781;DHT22;11557;50.884;4.322;2023-08-08T02:35:41;15.50;99.90
22781;DHT22;11557;50.884;4.322;2023-08-08T02:38:07;15.40;99.90
22781;DHT22;11557;50.884;4.322;2023-08-08T02:40:32;15.40;99.90
22781;DHT22;11557;50.884;4.322;2023-08-08T02:42:59;15.40;99.90
22781;DHT22;11557;50.884;4.322;2023-08-08T02:45:25;15.50;99.90
22781;DHT22;11557;50.884;4.322;2023-08-08T02:47:50;15.50;99.90
22781;DHT22;11557;50.884;4.322;2023-08-08T02:50:16;15.30;99.90
22781;DHT22;11557;50.884;4.322;2023-08-08T02:52:42;15.30;99.90
22781;DHT22;11557;50.884;4.322;2023-08-08T02:55:08;16.70;99.90
22781;DHT22;11557;50.884;4.322;2023-08-08T02:57:34;15.40;99.90
22781;DHT22;11557;50.884;4.322;2023-08-08T03:00:00;15.50;99.90
22781;DHT22;11557;50.884;4.322;2023-08-08T03:02:26;15.40;99.90
22781;DHT22;11557;50.884;4.322;2023-08-08T03:04:51;15.40;99.90
22781;DHT22;11557;50.884;4.322;2023-08-08T03:07:17;15.10;99.90
22781;DHT22;11557;50.884;4.322;2023-08-08T03:09:42;15.00;99.90
22781;DHT22;11557;50.884;4.322;2023-08-08T03:12:08;15.10;99.90
22781;DHT22;11557;50.884;4.322;2023-08-08T03:14:34;15.20;99.90
22781;DHT22;11557;50.884;4.322;2023-08-08T03:17:00;15.10;99.90
22781;DHT22;11557;50.884;4.322;2023-08-08T03:19:26;15.10;99.90
22781;DHT22;11557;50.884;4.322;2023-08-08T03:21:51;15.10;99.90
22781;DHT22;11557;50.884;4.322;2023-08-08T03:24:17;15.20;99.90
22781;DHT22;11557;50.884;4.322;2023-08-08T03:26:43;15.30;99.90
22781;DHT22;11557;50.884;4.322;2023-08-08T03:29:09;15.30;99.90
22781;DHT22;11557;50.884;4.322;2023-08-08T03:31:36;15.30;99.90
22781;DHT22;11557;50.884;4.322;2023-08-08T03:34:02;15.10;99.90
22781;DHT22;11557;50.884;4.322;2023-08-08T03:36:27;15.00;99.90
22781;DHT22;11557;50.884;4.322;2023-08-08T03:38:53;15.10;99.90
22781;DHT22;11557;50.884;4.322;2023-08-08T03:41:19;15.20;99.90
22781;DHT22;11557;50.884;4.322;2023-08-08T03:43:44;15.30;99.90
22781;DHT22;11557;50.884;4.322;2023-08-08T03:46:10;15.30;99.90
22781;DHT22;11557;50.884;4.322;2023-08-08T03:48:37;15.30;99.90
22781;DHT22;11557;50.884;4.322;2023-08-08T03:51:03;15.30;99.90
22781;DHT22;11557;50.884;4.322;2023-08-08T03:53:30;15.30;99.90
22781;DHT22;11557;50.884;4.322;2023-08-08T03:55:56;15.30;99.90
22781;DHT22;11557;50.884;4.322;2023-08-08T03:58:22;15.30;99.90
22781;DHT22;11557;50.884;4.322;2023-08-08T04:00:47;15.20;99.90
22781;DHT22;11557;50.884;4.322;2023-08-08T04:03:14;15.00;99.90
22781;DHT22;11557;50.884;4.322;2023-08-08T04:05:48;15.00;99.90
22781;DHT22;11557;50.884;4.322;2023-08-08T04:08:14;14.80;99.90
22781;DHT22;11557;50.884;4.322;2023-08-08T04:10:40;14.80;99.90
22781;DHT22;11557;50.884;4.322;2023-08-08T04:13:06;14.80;99.90
22781;DHT22;11557;50.884;4.322;2023-08-08T04:15:32;14.90;99.90
22781;DHT22;11557;50.884;4.322;2023-08-08T04:17:58;15.00;99.90
22781;DHT22;11557;50.884;4.322;2023-08-08T04:20:23;15.00;99.90
22781;DHT22;11557;50.884;4.322;2023-08-08T04:22:49;15.00;99.90
22781;DHT22;11557;50.884;4.322;2023-08-08T04:25:15;15.10;99.90
22781;DHT22;11557;50.884;4.322;2023-08-08T04:27:41;15.10;99.90
22781;DHT22;11557;50.884;4.322;2023-08-08T04:30:07;15.20;99.90
22781;DHT22;11557;50.884;4.322;2023-08-08T04:32:33;15.30;99.90
22781;DHT22;11557;50.884;4.322;2023-08-08T04:34:58;15.30;99.90
22781;DHT22;11557;50.884;4.322;2023-08-08T04:37:24;15.10;99.90
22781;DHT22;11557;50.884;4.322;2023-08-08T04:39:50;15.10;99.90
22781;DHT22;11557;50.884;4.322;2023-08-08T04:42:15;15.20;99.90
22781;DHT22;11557;50.884;4.322;2023-08-08T04:44:41;15.20;99.90
22781;DHT22;11557;50.884;4.322;2023-08-08T04:47:07;15.10;99.90
22781;DHT22;11557;50.884;4.322;2023-08-08T04:49:32;15.10;99.90
22781;DHT22;11557;50.884;4.322;2023-08-08T04:51:58;15.00;99.90
22781;DHT22;11557;50.884;4.322;2023-08-08T04:54:24;15.00;99.90
22781;DHT22;11557;50.884;4.322;2023-08-08T04:56:49;15.10;99.90
22781;DHT22;11557;50.884;4.322;2023-08-08T04:59:15;15.20;99.90
22781;DHT22;11557;50.884;4.322;2023-08-08T05:01:41;15.30;99.90
22781;DHT22;11557;50.884;4.322;2023-08-08T05:04:06;15.40;99.90
22781;DHT22;11557;50.884;4.322;2023-08-08T05:06:32;15.20;99.90
22781;DHT22;11557;50.884;4.322;2023-08-08T05:08:58;15.30;99.90
22781;DHT22;11557;50.884;4.322;2023-08-08T05:11:23;15.30;99.90
22781;DHT22;11557;50.884;4.322;2023-08-08T05:13:49;15.20;99.90
22781;DHT22;11557;50.884;4.322;2023-08-08T05:16:15;15.20;99.90
22781;DHT22;11557;50.884;4.322;2023-08-08T05:18:41;15.30;99.90
22781;DHT22;11557;50.884;4.322;2023-08-08T05:21:09;15.20;99.90
22781;DHT22;11557;50.884;4.322;2023-08-08T05:23:35;15.10;99.90
22781;DHT22;11557;50.884;4.322;2023-08-08T05:26:00;15.00;99.90
22781;DHT22;11557;50.884;4.322;2023-08-08T05:28:26;15.20;99.90
22781;DHT22;11557;50.884;4.322;2023-08-08T05:30:52;15.30;99.90
22781;DHT22;11557;50.884;4.322;2023-08-08T05:33:18;15.30;99.90
22781;DHT22;11557;50.884;4.322;2023-08-08T05:35:44;15.30;99.90
22781;DHT22;11557;50.884;4.322;2023-08-08T05:38:12;15.40;99.90
22781;DHT22;11557;50.884;4.322;2023-08-08T05:40:38;15.60;99.90
22781;DHT22;11557;50.884;4.322;2023-08-08T05:43:04;15.80;99.90
22781;DHT22;11557;50.884;4.322;2023-08-08T05:45:29;15.80;99.90
22781;DHT22;11557;50.884;4.322;2023-08-08T05:47:55;15.80;99.90
22781;DHT22;11557;50.884;4.322;2023-08-08T05:50:21;15.90;99.90
22781;DHT22;11557;50.884;4.322;2023-08-08T05:52:47;15.80;99.90
22781;DHT22;11557;50.884;4.322;2023-08-08T05:55:13;15.80;99.90
22781;DHT22;11557;50.884;4.322;2023-08-08T05:57:38;15.80;99.90
22781;DHT22;11557;50.884;4.322;2023-08-08T06:00:05;15.90;99.90
22781;DHT22;11557;50.884;4.322;2023-08-08T06:02:31;15.90;99.90
22781;DHT22;11557;50.884;4.322;2023-08-08T06:04:56;15.80;99.90
22781;DHT22;11557;50.884;4.322;2023-08-08T06:07:22;15.80;99.90
22781;DHT22;11557;50.884;4.322;2023-08-08T06:09:48;15.70;99.90
22781;DHT22;11557;50.884;4.322;2023-08-08T06:12:14;15.70;99.90
22781;DHT22;11557;50.884;4.322;2023-08-08T06:14:39;15.70;99.90
22781;DHT22;11557;50.884;4.322;2023-08-08T06:17:05;15.90;99.90
22781;DHT22;11557;50.884;4.322;2023-08-08T06:19:31;16.00;99.90
22781;DHT22;11557;50.884;4.322;2023-08-08T06:21:57;16.00;99.90
22781;DHT22;11557;50.884;4.322;2023-08-08T06:24:23;16.10;99.90
22781;DHT22;11557;50.884;4.322;2023-08-08T06:26:50;16.40;99.90
22781;DHT22;11557;50.884;4.322;2023-08-08T06:29:16;16.50;99.90
22781;DHT22;11557;50.884;4.322;2023-08-08T06:31:42;16.70;99.90
22781;DHT22;11557;50.884;4.322;2023-08-08T06:34:08;16.80;99.90
22781;DHT22;11557;50.884;4.322;2023-08-08T06:36:34;16.70;99.90
22781;DHT22;11557;50.884;4.322;2023-08-08T06:39:00;16.70;99.90
22781;DHT22;11557;50.884;4.322;2023-08-08T06:41:26;16.50;99.90
22781;DHT22;11557;50.884;4.322;2023-08-08T06:43:51;16.60;99.90
22781;DHT22;11557;50.884;4.322;2023-08-08T06:46:17;16.80;99.90
22781;DHT22;11557;50.884;4.322;2023-08-08T06:48:46;16.90;99.90
22781;DHT22;11557;50.884;4.322;2023-08-08T06:51:12;17.10;99.90
22781;DHT22;11557;50.884;4.322;2023-08-08T06:53:38;17.30;99.90
22781;DHT22;11557;50.884;4.322;2023-08-08T06:56:04;17.40;99.90
22781;DHT22;11557;50.884;4.322;2023-08-08T06:58:30;17.30;99.90
22781;DHT22;11557;50.884;4.322;2023-08-08T07:00:55;17.30;99.90
22781;DHT22;11557;50.884;4.322;2023-08-08T07:03:21;17.40;99.90
22781;DHT22;11557;50.884;4.322;2023-08-08T07:05:46;17.40;99.90
22781;DHT22;11557;50.884;4.322;2023-08-08T07:08:20;17.40;99.90
22781;DHT22;11557;50.884;4.322;2023-08-08T07:10:46;17.30;99.90
22781;DHT22;11557;50.884;4.322;2023-08-08T07:13:12;17.50;99.90
22781;DHT22;11557;50.884;4.322;2023-08-08T07:15:38;17.30;99.90
22781;DHT22;11557;50.884;4.322;2023-08-08T07:18:04;17.40;99.90
22781;DHT22;11557;50.884;4.322;2023-08-08T07:20:30;17.30;99.90
22781;DHT22;11557;50.884;4.322;2023-08-08T07:22:56;17.40;99.90
22781;DHT22;11557;50.884;4.322;2023-08-08T07:25:22;17.30;99.90
22781;DHT22;11557;50.884;4.322;2023-08-08T07:27:47;17.40;99.90
22781;DHT22;11557;50.884;4.322;2023-08-08T07:30:13;17.50;99.90
22781;DHT22;11557;50.884;4.322;2023-08-08T07:32:39;17.50;99.90
22781;DHT22;11557;50.884;4.322;2023-08-08T07:35:05;17.50;99.90
22781;DHT22;11557;50.884;4.322;2023-08-08T07:37:32;17.60;99.90
22781;DHT22;11557;50.884;4.322;2023-08-08T07:39:58;17.80;99.90
22781;DHT22;11557;50.884;4.322;2023-08-08T07:42:24;17.80;99.90
22781;DHT22;11557;50.884;4.322;2023-08-08T07:44:50;17.60;99.90
22781;DHT22;11557;50.884;4.322;2023-08-08T07:47:15;17.80;99.90
22781;DHT22;11557;50.884;4.322;2023-08-08T07:49:41;17.90;99.90
22781;DHT22;11557;50.884;4.322;2023-08-08T07:52:07;17.90;99.90
22781;DHT22;11557;50.884;4.322;2023-08-08T07:54:33;17.80;99.90
22781;DHT22;11557;50.884;4.322;2023-08-08T07:56:59;17.10;99.90
22781;DHT22;11557;50.884;4.322;2023-08-08T07:59:25;17.70;99.90
22781;DHT22;11557;50.884;4.322;2023-08-08T08:01:52;17.80;99.90
22781;DHT22;11557;50.884;4.322;2023-08-08T08:04:17;17.80;99.90
22781;DHT22;11557;50.884;4.322;2023-08-08T08:06:43;17.80;99.90
22781;DHT22;11557;50.884;4.322;2023-08-08T08:09:09;17.60;99.90
22781;DHT22;11557;50.884;4.322;2023-08-08T08:11:34;17.50;99.90
22781;DHT22;11557;50.884;4.322;2023-08-08T08:14:00;17.60;99.90
22781;DHT22;11557;50.884;4.322;2023-08-08T08:16:25;17.60;99.90
22781;DHT22;11557;50.884;4.322;2023-08-08T08:18:51;17.70;99.90
22781;DHT22;11557;50.884;4.322;2023-08-08T08:21:17;17.90;99.90
22781;DHT22;11557;50.884;4.322;2023-08-08T08:23:43;17.90;99.90
22781;DHT22;11557;50.884;4.322;2023-08-08T08:26:10;18.00;99.90
22781;DHT22;11557;50.884;4.322;2023-08-08T08:28:35;18.00;99.90
22781;DHT22;11557;50.884;4.322;2023-08-08T08:31:05;18.00;99.90
22781;DHT22;11557;50.884;4.322;2023-08-08T08:33:31;18.20;99.90
22781;DHT22;11557;50.884;4.322;2023-08-08T08:35:57;18.30;99.90
22781;DHT22;11557;50.884;4.322;2023-08-08T08:38:22;18.40;99.90
22781;DHT22;11557;50.884;4.322;2023-08-08T08:40:48;18.40;99.90
22781;DHT22;11557;50.884;4.322;2023-08-08T08:43:15;18.60;99.90
22781;DHT22;11557;50.884;4.322;2023-08-08T08:45:43;18.60;99.90
22781;DHT22;11557;50.884;4.322;2023-08-08T08:48:12;18.60;99.90
22781;DHT22;11557;50.884;4.322;2023-08-08T08:50:39;18.60;99.90
22781;DHT22;11557;50.884;4.322;2023-08-08T08:53:05;18.60;99.90
22781;DHT22;11557;50.884;4.322;2023-08-08T08:55:32;18.70;99.90
22781;DHT22;11557;50.884;4.322;2023-08-08T08:57:57;18.90;99.90
22781;DHT22;11557;50.884;4.322;2023-08-08T09:00:23;19.20;99.90
22781;DHT22;11557;50.884;4.322;2023-08-08T09:02:52;19.50;99.90
22781;DHT22;11557;50.884;4.322;2023-08-08T09:05:20;19.40;99.90
22781;DHT22;11557;50.884;4.322;2023-08-08T09:07:48;19.50;99.90
22781;DHT22;11557;50.884;4.322;2023-08-08T09:10:15;19.70;99.90
22781;DHT22;11557;50.884;4.322;2023-08-08T09:12:42;19.60;99.90
22781;DHT22;11557;50.884;4.322;2023-08-08T09:15:08;20.30;99.90
22781;DHT22;11557;50.884;4.322;2023-08-08T09:17:35;20.60;99.90
22781;DHT22;11557;50.884;4.322;2023-08-08T09:20:01;20.70;99.90
22781;DHT22;11557;50.884;4.322;2023-08-08T09:22:29;20.80;99.90
22781;DHT22;11557;50.884;4.322;2023-08-08T09:24:55;20.80;99.90
22781;DHT22;11557;50.884;4.322;2023-08-08T09:27:21;20.90;99.90
22781;DHT22;11557;50.884;4.322;2023-08-08T09:29:46;20.90;99.90
22781;DHT22;11557;50.884;4.322;2023-08-08T09:32:12;21.20;99.90
22781;DHT22;11557;50.884;4.322;2023-08-08T09:34:41;21.80;99.90
22781;DHT22;11557;50.884;4.322;2023-08-08T09:37:11;21.80;99.90
22781;DHT22;11557;50.884;4.322;2023-08-08T09:39:37;21.50;99.90
22781;DHT22;11557;50.884;4.322;2023-08-08T09:42:03;21.40;99.90
22781;DHT22;11557;50.884;4.322;2023-08-08T09:44:32;21.20;99.90
22781;DHT22;11557;50.884;4.322;2023-08-08T09:47:00;21.10;99.90
22781;DHT22;11557;50.884;4.322;2023-08-08T09:49:27;21.00;99.90
22781;DHT22;11557;50.884;4.322;2023-08-08T09:51:54;20.70;99.90
22781;DHT22;11557;50.884;4.322;2023-08-08T09:54:21;21.50;99.90
22781;DHT22;11557;50.884;4.322;2023-08-08T09:56:48;20.70;99.90
22781;DHT22;11557;50.884;4.322;2023-08-08T09:59:15;20.70;99.90
22781;DHT22;11557;50.884;4.322;2023-08-08T10:01:43;20.50;99.90
22781;DHT22;11557;50.884;4.322;2023-08-08T10:04:11;20.00;99.90
22781;DHT22;11557;50.884;4.322;2023-08-08T10:06:37;20.10;99.90
22781;DHT22;11557;50.884;4.322;2023-08-08T10:09:03;19.90;99.90
22781;DHT22;11557;50.884;4.322;2023-08-08T10:11:30;19.70;99.90
22781;DHT22;11557;50.884;4.322;2023-08-08T10:14:00;19.50;99.90
22781;DHT22;11557;50.884;4.322;2023-08-08T10:16:26;19.20;99.90
22781;DHT22;11557;50.884;4.322;2023-08-08T10:18:59;19.20;99.90
22781;DHT22;11557;50.884;4.322;2023-08-08T10:21:25;19.20;99.90
22781;DHT22;11557;50.884;4.322;2023-08-08T10:24:02;19.10;99.90
22781;DHT22;11557;50.884;4.322;2023-08-08T10:26:28;19.10;99.90
22781;DHT22;11557;50.884;4.322;2023-08-08T10:28:59;19.20;99.90
22781;DHT22;11557;50.884;4.322;2023-08-08T10:31:25;19.00;99.90
22781;DHT22;11557;50.884;4.322;2023-08-08T10:34:01;19.20;99.90
22781;DHT22;11557;50.884;4.322;2023-08-08T10:36:49;19.40;99.90
22781;DHT22;11557;50.884;4.322;2023-08-08T10:39:19;19.40;99.90
22781;DHT22;11557;50.884;4.322;2023-08-08T10:41:50;19.40;99.90
22781;DHT22;11557;50.884;4.322;2023-08-08T10:44:23;19.40;99.90
22781;DHT22;11557;50.884;4.322;2023-08-08T10:46:50;19.40;99.90
22781;DHT22;11557;50.884;4.322;2023-08-08T10:49:17;19.10;99.90
22781;DHT22;11557;50.884;4.322;2023-08-08T10:51:44;18.90;99.90
22781;DHT22;11557;50.884;4.322;2023-08-08T10:54:23;18.80;99.90
22781;DHT22;11557;50.884;4.322;2023-08-08T10:56:54;18.80;99.90
22781;DHT22;11557;50.884;4.322;2023-08-08T10:59:38;19.80;99.90
22781;DHT22;11557;50.884;4.322;2023-08-08T11:02:04;19.20;99.90
22781;DHT22;11557;50.884;4.322;2023-08-08T11:04:30;19.40;99.90
22781;DHT22;11557;50.884;4.322;2023-08-08T11:06:58;19.60;99.90
22781;DHT22;11557;50.884;4.322;2023-08-08T11:09:24;19.90;99.90
22781;DHT22;11557;50.884;4.322;2023-08-08T11:11:52;20.10;99.90
22781;DHT22;11557;50.884;4.322;2023-08-08T11:14:20;20.10;99.90
22781;DHT22;11557;50.884;4.322;2023-08-08T11:16:47;20.20;99.90
22781;DHT22;11557;50.884;4.322;2023-08-08T11:19:14;20.40;99.90
22781;DHT22;11557;50.884;4.322;2023-08-08T11:21:42;20.40;99.90
22781;DHT22;11557;50.884;4.322;2023-08-08T11:24:09;20.10;99.90
22781;DHT22;11557;50.884;4.322;2023-08-08T11:26:36;20.50;99.90
22781;DHT22;11557;50.884;4.322;2023-08-08T11:29:04;20.30;99.90
22781;DHT22;11557;50.884;4.322;2023-08-08T11:31:31;20.20;99.90
22781;DHT22;11557;50.884;4.322;2023-08-08T11:33:59;20.30;99.90
22781;DHT22;11557;50.884;4.322;2023-08-08T11:36:26;20.30;99.90
22781;DHT22;11557;50.884;4.322;2023-08-08T11:38:54;20.40;99.90
22781;DHT22;11557;50.884;4.322;2023-08-08T11:41:22;20.30;99.90
22781;DHT22;11557;50.884;4.322;2023-08-08T11:43:50;20.30;99.90
22781;DHT22;11557;50.884;4.322;2023-08-08T11:46:16;20.20;99.90
22781;DHT22;11557;50.884;4.322;2023-08-08T11:48:46;20.30;99.90
22781;DHT22;11557;50.884;4.322;2023-08-08T11:51:14;20.50;99.90
22781;DHT22;11557;50.884;4.322;2023-08-08T11:53:49;20.40;99.90
22781;DHT22;11557;50.884;4.322;2023-08-08T11:56:17;20.50;99.90
22781;DHT22;11557;50.884;4.322;2023-08-08T11:58:43;20.70;99.90
22781;DHT22;11557;50.884;4.322;2023-08-08T12:01:09;20.60;99.90
22781;DHT22;11557;50.884;4.322;2023-08-08T12:03:36;20.70;99.90
22781;DHT22;11557;50.884;4.322;2023-08-08T12:06:14;20.70;99.90
22781;DHT22;11557;50.884;4.322;2023-08-08T12:08:44;20.60;99.90
22781;DHT22;11557;50.884;4.322;2023-08-08T12:11:11;20.20;99.90
22781;DHT22;11557;50.884;4.322;2023-08-08T12:13:38;20.10;99.90
22781;DHT22;11557;50.884;4.322;2023-08-08T12:16:11;20.20;99.90
22781;DHT22;11557;50.884;4.322;2023-08-08T12:18:38;20.50;99.90
22781;DHT22;11557;50.884;4.322;2023-08-08T12:21:09;20.70;99.90
22781;DHT22;11557;50.884;4.322;2023-08-08T12:23:36;20.90;99.90
22781;DHT22;11557;50.884;4.322;2023-08-08T12:26:06;21.00;99.90
22781;DHT22;11557;50.884;4.322;2023-08-08T12:28:32;21.10;99.90
22781;DHT22;11557;50.884;4.322;2023-08-08T12:30:58;21.10;99.90
22781;DHT22;11557;50.884;4.322;2023-08-08T12:33:23;21.00;99.90
22781;DHT22;11557;50.884;4.322;2023-08-08T12:35:49;20.90;99.90
22781;DHT22;11557;50.884;4.322;2023-08-08T12:38:15;21.30;99.90
22781;DHT22;11557;50.884;4.322;2023-08-08T12:40:41;21.20;99.90
22781;DHT22;11557;50.884;4.322;2023-08-08T12:43:08;21.10;99.90
22781;DHT22;11557;50.884;4.322;2023-08-08T12:45:34;21.30;99.90
22781;DHT22;11557;50.884;4.322;2023-08-08T12:48:00;21.30;99.90
22781;DHT22;11557;50.884;4.322;2023-08-08T12:50:26;21.30;99.90
22781;DHT22;11557;50.884;4.322;2023-08-08T12:52:52;21.20;99.90
22781;DHT22;11557;50.884;4.322;2023-08-08T12:55:17;21.00;99.90
22781;DHT22;11557;50.884;4.322;2023-08-08T12:57:44;21.10;99.90
22781;DHT22;11557;50.884;4.322;2023-08-08T13:00:10;21.30;99.90
22781;DHT22;11557;50.884;4.322;2023-08-08T13:02:37;21.10;99.90
22781;DHT22;11557;50.884;4.322;2023-08-08T13:05:04;21.30;99.90
22781;DHT22;11557;50.884;4.322;2023-08-08T13:07:29;21.30;99.90
22781;DHT22;11557;50.884;4.322;2023-08-08T13:09:55;21.40;99.90
22781;DHT22;11557;50.884;4.322;2023-08-08T13:12:21;21.60;99.90
22781;DHT22;11557;50.884;4.322;2023-08-08T13:14:47;21.70;99.90
22781;DHT22;11557;50.884;4.322;2023-08-08T13:17:13;21.50;99.90
22781;DHT22;11557;50.884;4.322;2023-08-08T13:19:39;21.30;99.90
22781;DHT22;11557;50.884;4.322;2023-08-08T13:22:05;21.20;99.90
22781;DHT22;11557;50.884;4.322;2023-08-08T13:24:31;21.10;99.90
22781;DHT22;11557;50.884;4.322;2023-08-08T13:26:56;20.90;99.90
22781;DHT22;11557;50.884;4.322;2023-08-08T13:29:22;21.00;99.90
22781;DHT22;11557;50.884;4.322;2023-08-08T13:31:47;20.90;99.90
22781;DHT22;11557;50.884;4.322;2023-08-08T13:34:13;20.70;99.90
22781;DHT22;11557;50.884;4.322;2023-08-08T13:36:39;20.80;99.90
22781;DHT22;11557;50.884;4.322;2023-08-08T13:39:05;21.10;99.90
22781;DHT22;11557;50.884;4.322;2023-08-08T13:41:31;21.20;99.90
22781;DHT22;11557;50.884;4.322;2023-08-08T13:43:57;21.40;99.90
22781;DHT22;11557;50.884;4.322;2023-08-08T13:46:22;21.40;99.90
22781;DHT22;11557;50.884;4.322;2023-08-08T13:48:48;21.70;99.90
22781;DHT22;11557;50.884;4.322;2023-08-08T13:51:14;21.70;99.90
22781;DHT22;11557;50.884;4.322;2023-08-08T13:53:39;21.60;99.90
22781;DHT22;11557;50.884;4.322;2023-08-08T13:56:05;21.60;99.90
22781;DHT22;11557;50.884;4.322;2023-08-08T13:58:31;21.90;99.90
22781;DHT22;11557;50.884;4.322;2023-08-08T14:00:57;21.60;99.90
22781;DHT22;11557;50.884;4.322;2023-08-08T14:03:23;21.60;99.90
22781;DHT22;11557;50.884;4.322;2023-08-08T14:05:50;21.90;99.90
22781;DHT22;11557;50.884;4.322;2023-08-08T14:08:18;22.00;99.90
22781;DHT22;11557;50.884;4.322;2023-08-08T14:10:44;21.80;99.90
22781;DHT22;11557;50.884;4.322;2023-08-08T14:13:10;21.50;99.90
22781;DHT22;11557;50.884;4.322;2023-08-08T14:15:37;20.90;99.90
22781;DHT22;11557;50.884;4.322;2023-08-08T14:18:03;20.80;99.90
22781;DHT22;11557;50.884;4.322;2023-08-08T14:20:29;20.60;99.90
22781;DHT22;11557;50.884;4.322;2023-08-08T14:22:54;20.50;99.90
22781;DHT22;11557;50.884;4.322;2023-08-08T14:25:20;20.60;99.90
22781;DHT22;11557;50.884;4.322;2023-08-08T14:27:46;20.50;99.90
22781;DHT22;11557;50.884;4.322;2023-08-08T14:30:12;20.30;99.90
22781;DHT22;11557;50.884;4.322;2023-08-08T14:32:37;20.30;99.90
22781;DHT22;11557;50.884;4.322;2023-08-08T14:35:03;20.40;99.90
22781;DHT22;11557;50.884;4.322;2023-08-08T14:37:30;20.30;99.90
22781;DHT22;11557;50.884;4.322;2023-08-08T14:39:56;20.30;99.90
22781;DHT22;11557;50.884;4.322;2023-08-08T14:42:22;20.20;99.90
22781;DHT22;11557;50.884;4.322;2023-08-08T14:44:48;20.00;99.90
22781;DHT22;11557;50.884;4.322;2023-08-08T14:47:14;19.90;99.90
22781;DHT22;11557;50.884;4.322;2023-08-08T14:49:39;19.80;99.90
22781;DHT22;11557;50.884;4.322;2023-08-08T14:52:05;19.80;99.90
22781;DHT22;11557;50.884;4.322;2023-08-08T14:54:31;19.80;99.90
22781;DHT22;11557;50.884;4.322;2023-08-08T14:56:57;19.80;99.90
22781;DHT22;11557;50.884;4.322;2023-08-08T14:59:23;19.90;99.90
22781;DHT22;11557;50.884;4.322;2023-08-08T15:01:49;19.80;99.90
22781;DHT22;11557;50.884;4.322;2023-08-08T15:04:15;19.90;99.90
22781;DHT22;11557;50.884;4.322;2023-08-08T15:06:41;19.90;99.90
22781;DHT22;11557;50.884;4.322;2023-08-08T15:09:07;19.90;99.90
22781;DHT22;11557;50.884;4.322;2023-08-08T15:11:33;20.00;99.90
22781;DHT22;11557;50.884;4.322;2023-08-08T15:13:58;19.90;99.90
22781;DHT22;11557;50.884;4.322;2023-08-08T15:16:24;19.80;99.90
22781;DHT22;11557;50.884;4.322;2023-08-08T15:18:50;19.80;99.90
22781;DHT22;11557;50.884;4.322;2023-08-08T15:21:15;19.70;99.90
22781;DHT22;11557;50.884;4.322;2023-08-08T15:23:45;19.80;99.90
22781;DHT22;11557;50.884;4.322;2023-08-08T15:26:11;19.70;99.90
22781;DHT22;11557;50.884;4.322;2023-08-08T15:28:38;19.70;99.90
22781;DHT22;11557;50.884;4.322;2023-08-08T15:31:04;19.80;99.90